createdAt,value
2019-01-08T00:02:03.166Z,30.30
2019-01-08T00:04:08.953Z,34.65
2019-01-08T00:06:17.154Z,30.17
2019-01-08T00:08:22.650Z,35.03
2019-01-08T00:10:29.270Z,32.53
2019-01-08T00:12:35.243Z,28.73
2019-01-08T00:14:42.546Z,29.20
2019-01-08T00:16:50.354Z,30.20
2019-01-08T00:18:58.779Z,31.17
2019-01-08T00:21:09.986Z,32.42
2019-01-08T00:23:15.671Z,30.75
2019-01-08T00:25:28.812Z,31.62
2019-01-08T00:27:34.296Z,29.30
2019-01-08T00:29:39.758Z,28.80
2019-01-08T00:31:49.954Z,35.25
2019-01-08T00:33:57.170Z,32.88
2019-01-08T00:36:12.028Z,33.55
2019-01-08T00:38:23.221Z,35.48
2019-01-08T00:40:37.397Z,30.92
2019-01-08T00:42:42.934Z,34.95
2019-01-08T00:44:48.448Z,27.82
2019-01-08T00:46:58.593Z,29.77
2019-01-08T00:49:13.583Z,37.88
2019-01-08T00:51:21.750Z,38.23
2019-01-08T00:53:39.054Z,31.23
2019-01-08T00:55:44.710Z,34.38
2019-01-08T00:57:51.996Z,37.60
2019-01-08T00:59:57.446Z,41.28
2019-01-08T01:02:06.083Z,32.15
2019-01-08T01:04:14.129Z,33.08
2019-01-08T01:06:20.020Z,39.60
2019-01-08T01:08:29.909Z,38.17
2019-01-08T01:10:37.099Z,35.83
2019-01-08T01:12:42.638Z,38.85
2019-01-08T01:14:49.910Z,49.35
2019-01-08T01:16:55.406Z,34.33
2019-01-08T01:19:02.824Z,35.23
2019-01-08T01:21:11.335Z,36.68
2019-01-08T01:23:18.566Z,39.23
2019-01-08T01:25:24.102Z,42.30
2019-01-08T01:27:32.578Z,35.90
2019-01-08T01:29:43.755Z,35.20
2019-01-08T01:31:49.253Z,34.25
2019-01-08T01:33:56.542Z,37.75
2019-01-08T01:36:08.204Z,31.75
2019-01-08T01:38:13.787Z,33.13
2019-01-08T01:40:21.055Z,33.65
2019-01-08T01:42:26.699Z,38.75
2019-01-08T01:44:39.878Z,33.15
2019-01-08T01:46:45.454Z,33.20
2019-01-08T01:48:51.240Z,33.02
2019-01-08T01:50:59.662Z,35.05
2019-01-08T01:53:05.220Z,34.33
2019-01-08T01:55:13.490Z,31.68
2019-01-08T01:57:20.836Z,39.13
2019-01-08T01:59:26.547Z,29.50
2019-01-08T02:01:32.066Z,33.00
2019-01-08T02:03:37.548Z,30.45
2019-01-08T02:05:52.018Z,34.83
2019-01-08T02:07:57.499Z,31.97
2019-01-08T02:10:09.110Z,30.65
2019-01-08T02:12:14.954Z,32.15
2019-01-08T02:14:22.223Z,37.48
2019-01-08T02:16:28.500Z,36.63
2019-01-08T02:18:36.662Z,32.78
2019-01-08T02:20:42.282Z,39.08
2019-01-08T02:22:49.643Z,33.23
2019-01-08T02:24:55.718Z,36.55
2019-01-08T02:27:03.228Z,30.35
2019-01-08T02:29:16.677Z,37.30
2019-01-08T02:31:22.186Z,30.82
2019-01-08T02:33:29.035Z,31.05
2019-01-08T02:35:36.384Z,30.92
2019-01-08T02:37:56.802Z,32.65
2019-01-08T02:40:03.993Z,33.23
2019-01-08T02:42:09.677Z,34.78
2019-01-08T02:44:18.143Z,35.95
2019-01-08T02:46:24.133Z,36.68
2019-01-08T02:48:30.203Z,34.75
2019-01-08T02:50:35.813Z,31.30
2019-01-08T02:52:44.913Z,32.65
2019-01-08T02:54:52.149Z,33.67
2019-01-08T02:56:57.711Z,32.88
2019-01-08T02:59:09.324Z,43.80
2019-01-08T03:01:14.866Z,34.13
2019-01-08T03:03:23.383Z,38.75
2019-01-08T03:05:31.118Z,36.48
2019-01-08T03:07:36.765Z,34.10
2019-01-08T03:09:44.120Z,35.88
2019-01-08T03:11:50.271Z,33.48
2019-01-08T03:14:06.356Z,38.33
2019-01-08T03:16:14.795Z,43.63
2019-01-08T03:18:20.481Z,35.92
2019-01-08T03:20:27.858Z,38.20
2019-01-08T03:22:35.552Z,43.42
2019-01-08T03:24:43.289Z,35.75
2019-01-08T03:26:51.744Z,39.20
2019-01-08T03:28:57.307Z,39.50
2019-01-08T03:31:03.523Z,38.20
2019-01-08T03:33:12.227Z,35.50
2019-01-08T03:35:17.773Z,41.65
2019-01-08T03:37:25.223Z,44.98
2019-01-08T03:39:30.843Z,54.67
2019-01-08T03:41:38.129Z,53.78
2019-01-08T03:43:43.774Z,49.20
2019-01-08T03:45:49.379Z,37.03
2019-01-08T03:47:56.050Z,50.40
2019-01-08T03:50:02.802Z,41.83
2019-01-08T03:52:11.457Z,41.37
2019-01-08T03:54:24.678Z,37.33
2019-01-08T03:56:30.875Z,35.68
2019-01-08T03:58:38.395Z,35.40
2019-01-08T04:00:56.304Z,39.78
2019-01-08T04:03:03.715Z,42.83
2019-01-08T04:05:09.288Z,39.83
2019-01-08T04:07:17.853Z,35.20
2019-01-08T04:09:23.784Z,37.23
2019-01-08T04:11:37.946Z,38.28
2019-01-08T04:13:47.002Z,39.20
2019-01-08T04:15:52.980Z,39.25
2019-01-08T04:17:58.556Z,38.02
2019-01-08T04:20:05.852Z,37.58
2019-01-08T04:22:11.399Z,35.90
2019-01-08T04:24:32.067Z,42.85
2019-01-08T04:26:37.642Z,33.75
2019-01-08T04:28:43.185Z,32.90
2019-01-08T04:30:58.957Z,31.37
2019-01-08T04:33:04.662Z,38.20
2019-01-08T04:35:14.484Z,41.40
2019-01-08T04:37:21.804Z,36.60
2019-01-08T04:39:33.295Z,39.73
2019-01-08T04:41:40.474Z,34.33
2019-01-08T04:43:47.751Z,28.83
2019-01-08T04:45:56.078Z,39.67
2019-01-08T04:48:05.610Z,43.20
2019-01-08T04:50:17.455Z,37.25
2019-01-08T04:52:30.550Z,37.55
2019-01-08T04:54:42.635Z,39.03
2019-01-08T04:56:48.847Z,45.98
2019-01-08T04:59:06.736Z,45.20
2019-01-08T05:01:21.121Z,43.08
2019-01-08T05:03:30.674Z,42.60
2019-01-08T05:05:37.943Z,42.23
2019-01-08T05:07:43.527Z,35.08
2019-01-08T05:09:53.729Z,42.48
2019-01-08T05:11:59.585Z,34.67
2019-01-08T05:14:06.890Z,35.92
2019-01-08T05:16:18.262Z,32.80
2019-01-08T05:18:31.294Z,35.73
2019-01-08T05:20:42.894Z,36.23
2019-01-08T05:23:06.418Z,33.33
2019-01-08T05:25:13.606Z,37.78
2019-01-08T05:27:19.259Z,38.30
2019-01-08T05:29:30.561Z,31.12
2019-01-08T05:31:37.898Z,38.30
2019-01-08T05:33:49.938Z,39.13
2019-01-08T05:35:55.527Z,33.98
2019-01-08T05:38:01.000Z,36.70
2019-01-08T05:40:07.581Z,38.48
2019-01-08T05:42:14.852Z,34.78
2019-01-08T05:44:20.391Z,37.65
2019-01-08T05:46:25.988Z,37.70
2019-01-08T05:48:34.393Z,37.50
2019-01-08T05:50:53.525Z,41.65
2019-01-08T05:52:58.989Z,38.00
2019-01-08T05:55:15.402Z,41.10
2019-01-08T05:57:21.014Z,37.85
2019-01-08T05:59:26.960Z,42.45
2019-01-08T06:01:33.854Z,42.98
2019-01-08T06:03:41.247Z,38.67
2019-01-08T06:05:46.877Z,37.40
2019-01-08T06:07:52.497Z,43.13
2019-01-08T06:09:58.099Z,33.50
2019-01-08T06:12:54.194Z,38.78
2019-01-08T06:14:59.759Z,36.68
2019-01-08T06:17:08.343Z,35.48
2019-01-08T06:19:28.502Z,42.00
2019-01-08T06:21:35.268Z,36.30
2019-01-08T06:23:47.480Z,34.38
2019-01-08T06:25:55.153Z,36.38
2019-01-08T06:28:01.192Z,33.98
2019-01-08T06:30:08.063Z,40.03
2019-01-08T06:32:16.699Z,34.63
2019-01-08T06:34:24.774Z,36.15
2019-01-08T06:36:31.006Z,34.88
2019-01-08T06:38:37.329Z,35.33
2019-01-08T06:40:44.618Z,33.40
2019-01-08T06:42:50.178Z,35.00
2019-01-08T06:44:57.610Z,29.20
2019-01-08T06:47:12.214Z,39.08
2019-01-08T06:49:19.405Z,37.13
2019-01-08T06:51:26.974Z,35.90
2019-01-08T06:53:35.487Z,35.03
2019-01-08T06:55:43.452Z,32.78
2019-01-08T06:57:54.847Z,35.85
2019-01-08T07:00:00.590Z,40.03
2019-01-08T07:02:06.448Z,36.33
2019-01-08T07:04:14.886Z,36.35
2019-01-08T07:06:22.070Z,33.90
2019-01-08T07:08:30.299Z,33.13
2019-01-08T07:10:37.521Z,40.55
2019-01-08T07:12:43.028Z,37.08
2019-01-08T07:14:54.589Z,45.50
2019-01-08T07:17:00.098Z,34.50
2019-01-08T07:19:16.653Z,30.55
2019-01-08T07:21:23.837Z,38.60
2019-01-08T07:23:29.262Z,38.92
2019-01-08T07:25:42.144Z,32.88
2019-01-08T07:27:43.930Z,36.80
2019-01-08T07:29:51.100Z,40.65
2019-01-08T07:32:01.414Z,41.68
2019-01-08T07:34:09.666Z,33.70
2019-01-08T07:36:18.238Z,40.43
2019-01-08T07:38:32.720Z,32.20
2019-01-08T07:40:38.165Z,36.10
2019-01-08T07:42:46.653Z,41.00
2019-01-08T07:44:54.588Z,39.90
2019-01-08T07:47:09.007Z,35.28
2019-01-08T07:49:21.234Z,37.88
2019-01-08T07:51:28.663Z,36.73
2019-01-08T07:53:35.822Z,31.55
2019-01-08T07:55:45.966Z,33.42
2019-01-08T07:57:51.804Z,34.73
2019-01-08T07:59:57.258Z,34.43
2019-01-08T08:02:08.471Z,35.13
2019-01-08T08:04:17.134Z,34.70
2019-01-08T08:06:24.385Z,34.60
2019-01-08T08:08:29.857Z,32.20
2019-01-08T08:10:35.385Z,33.65
2019-01-08T08:12:41.821Z,34.83
2019-01-08T08:14:47.266Z,30.20
2019-01-08T08:16:54.449Z,38.20
2019-01-08T08:19:02.557Z,32.30
2019-01-08T08:21:09.706Z,35.20
2019-01-08T08:23:27.195Z,38.58
2019-01-08T08:25:35.930Z,34.78
2019-01-08T08:27:45.191Z,33.75
2019-01-08T08:29:53.583Z,36.28
2019-01-08T08:32:08.258Z,39.73
2019-01-08T08:34:14.039Z,35.98
2019-01-08T08:36:22.370Z,35.38
2019-01-08T08:38:27.973Z,39.48
2019-01-08T08:40:33.483Z,31.40
2019-01-08T08:42:42.208Z,38.38
2019-01-08T08:44:49.426Z,33.23
2019-01-08T08:47:01.098Z,33.95
2019-01-08T08:49:06.586Z,35.28
2019-01-08T08:51:18.314Z,34.85
2019-01-08T08:53:35.809Z,34.90
2019-01-08T08:55:52.850Z,39.78
2019-01-08T08:58:01.310Z,41.50
2019-01-08T09:00:08.162Z,37.88
2019-01-08T09:02:16.665Z,36.70
2019-01-08T09:04:28.211Z,37.50
2019-01-08T09:06:36.686Z,33.10
2019-01-08T09:08:42.154Z,34.53
2019-01-08T09:10:50.529Z,33.08
2019-01-08T09:12:57.679Z,34.43
2019-01-08T09:15:09.386Z,28.12
2019-01-08T09:17:17.355Z,29.72
2019-01-08T09:19:22.807Z,30.65
2019-01-08T09:21:31.247Z,32.65
2019-01-08T09:23:37.723Z,30.80
2019-01-08T09:25:44.441Z,34.08
2019-01-08T09:27:51.646Z,33.15
2019-01-08T09:30:02.748Z,32.88
2019-01-08T09:32:20.603Z,36.20
2019-01-08T09:34:29.003Z,35.30
2019-01-08T09:36:37.186Z,32.63
2019-01-08T09:38:44.415Z,32.93
2019-01-08T09:40:50.310Z,29.98
2019-01-08T09:43:01.956Z,31.65
2019-01-08T09:45:09.598Z,27.93
2019-01-08T09:47:15.459Z,31.57
2019-01-08T09:49:23.729Z,30.75
2019-01-08T09:51:29.190Z,30.90
2019-01-08T09:53:34.789Z,25.70
2019-01-08T09:55:42.077Z,28.73
2019-01-08T09:57:49.324Z,26.15
2019-01-08T09:59:54.891Z,32.93
2019-01-08T10:02:00.443Z,34.70
2019-01-08T10:04:07.620Z,32.10
2019-01-08T10:06:14.816Z,32.15
2019-01-08T10:08:20.356Z,29.12
2019-01-08T10:10:27.658Z,34.65
2019-01-08T10:12:33.246Z,30.62
2019-01-08T10:14:47.908Z,29.63
2019-01-08T10:16:56.481Z,29.42
2019-01-08T10:19:02.060Z,34.13
2019-01-08T10:21:07.579Z,34.05
2019-01-08T10:23:18.835Z,29.87
2019-01-08T10:25:25.973Z,28.32
2019-01-08T10:27:34.355Z,31.80
2019-01-08T10:29:43.275Z,32.33
2019-01-08T10:31:48.894Z,34.40
2019-01-08T10:33:56.058Z,28.60
2019-01-08T10:36:03.248Z,28.57
2019-01-08T10:38:11.814Z,27.55
2019-01-08T10:40:17.244Z,26.57
2019-01-08T10:42:22.837Z,33.45
2019-01-08T10:44:28.408Z,24.65
2019-01-08T10:46:37.530Z,30.08
2019-01-08T10:48:45.290Z,28.45
2019-01-08T10:50:50.890Z,26.27
2019-01-08T10:53:01.107Z,33.53
2019-01-08T10:55:09.640Z,29.25
2019-01-08T10:57:15.162Z,39.20
2019-01-08T10:59:20.624Z,32.35
2019-01-08T11:01:29.177Z,27.90
2019-01-08T11:03:36.389Z,33.00
2019-01-08T11:05:43.890Z,36.25
2019-01-08T11:07:51.054Z,27.75
2019-01-08T11:10:03.239Z,32.03
2019-01-08T11:12:12.264Z,31.95
2019-01-08T11:14:17.775Z,23.87
2019-01-08T11:16:23.218Z,29.42
2019-01-08T11:18:29.181Z,28.40
2019-01-08T11:20:36.462Z,27.93
2019-01-08T11:22:43.673Z,27.50
2019-01-08T11:24:50.896Z,26.75
2019-01-08T11:26:56.454Z,33.48
2019-01-08T11:29:08.279Z,38.58
2019-01-08T11:31:18.119Z,27.85
2019-01-08T11:33:25.370Z,28.32
2019-01-08T11:35:31.727Z,30.15
2019-01-08T11:37:37.296Z,34.05
2019-01-08T11:39:45.476Z,29.40
2019-01-08T11:41:52.303Z,28.73
2019-01-08T11:43:59.587Z,28.80
2019-01-08T11:46:11.137Z,29.40
2019-01-08T11:48:18.346Z,29.30
2019-01-08T11:50:23.886Z,35.65
2019-01-08T11:52:29.544Z,27.42
2019-01-08T11:54:53.262Z,29.85
2019-01-08T11:56:58.795Z,26.33
2019-01-08T11:59:11.857Z,37.63
2019-01-08T12:01:18.783Z,32.20
2019-01-08T12:03:24.398Z,28.50
2019-01-08T12:05:31.732Z,25.70
2019-01-08T12:07:37.283Z,27.37
2019-01-08T12:09:55.167Z,27.05
2019-01-08T12:12:02.238Z,27.77
2019-01-08T12:14:09.495Z,27.90
2019-01-08T12:16:15.111Z,25.97
2019-01-08T12:18:20.780Z,26.27
2019-01-08T12:20:29.297Z,28.15
2019-01-08T12:22:44.023Z,25.30
2019-01-08T12:24:50.836Z,24.82
2019-01-08T12:27:03.418Z,21.90
2019-01-08T12:29:14.715Z,13.68
2019-01-08T12:31:26.322Z,19.45
2019-01-08T12:33:32.119Z,19.90
2019-01-08T12:35:40.605Z,17.27
2019-01-08T12:37:52.166Z,21.52
2019-01-08T12:39:59.313Z,19.27
2019-01-08T12:42:04.936Z,21.25
2019-01-08T12:44:13.466Z,21.00
2019-01-08T12:46:38.836Z,18.10
2019-01-08T12:48:44.459Z,16.75
2019-01-08T12:50:52.675Z,17.75
2019-01-08T12:53:01.213Z,9.60
2019-01-08T12:55:06.787Z,8.85
2019-01-08T12:57:18.156Z,8.83
2019-01-08T12:59:29.602Z,12.07
2019-01-08T13:01:35.242Z,9.83
2019-01-08T13:03:40.913Z,12.88
2019-01-08T13:05:46.983Z,13.30
2019-01-08T13:08:00.759Z,11.83
2019-01-08T13:10:08.979Z,11.97
2019-01-08T13:12:16.206Z,9.53
2019-01-08T13:14:21.731Z,12.25
2019-01-08T13:16:29.008Z,8.93
2019-01-08T13:18:35.868Z,13.53
2019-01-08T13:20:47.335Z,10.85
2019-01-08T13:22:54.618Z,11.95
2019-01-08T13:25:09.272Z,12.37
2019-01-08T13:27:23.253Z,11.28
2019-01-08T13:29:30.691Z,16.40
2019-01-08T13:31:36.602Z,13.05
2019-01-08T13:33:43.810Z,13.55
2019-01-08T13:35:51.753Z,12.85
2019-01-08T13:38:01.806Z,12.40
2019-01-08T13:40:07.478Z,8.45
2019-01-08T13:42:16.152Z,11.63
2019-01-08T13:44:21.772Z,11.22
2019-01-08T13:46:27.682Z,13.05
2019-01-08T13:48:39.291Z,11.97
2019-01-08T13:50:44.850Z,13.93
2019-01-08T13:52:52.165Z,7.42
2019-01-08T13:55:03.806Z,9.30
2019-01-08T13:57:18.347Z,14.35
2019-01-08T13:59:33.070Z,15.32
2019-01-08T14:01:39.469Z,6.17
2019-01-08T14:03:45.002Z,9.85
2019-01-08T14:05:52.190Z,8.38
2019-01-08T14:08:01.346Z,6.65
2019-01-08T14:10:07.450Z,7.37
2019-01-08T14:12:14.622Z,6.78
2019-01-08T14:14:21.103Z,5.85
2019-01-08T14:16:29.688Z,7.10
2019-01-08T14:18:35.331Z,9.28
2019-01-08T14:20:51.716Z,7.85
2019-01-08T14:23:01.538Z,6.10
2019-01-08T14:25:12.969Z,5.33
2019-01-08T14:27:20.051Z,11.03
2019-01-08T14:29:25.762Z,8.38
2019-01-08T14:31:31.740Z,6.10
2019-01-08T14:33:37.339Z,3.65
2019-01-08T14:35:48.334Z,5.72
2019-01-08T14:38:01.450Z,5.47
2019-01-08T14:40:09.547Z,5.47
2019-01-08T14:42:30.263Z,4.20
2019-01-08T14:44:47.115Z,7.12
2019-01-08T14:46:53.410Z,8.03
2019-01-08T14:48:59.058Z,7.78
2019-01-08T14:51:06.460Z,6.12
2019-01-08T14:53:13.907Z,7.95
2019-01-08T14:55:20.733Z,9.20
2019-01-08T14:57:32.200Z,11.60
2019-01-08T14:59:37.710Z,16.10
2019-01-08T15:01:43.586Z,17.40
2019-01-08T15:03:49.088Z,10.58
2019-01-08T15:05:56.332Z,8.63
2019-01-08T15:08:03.543Z,10.35
2019-01-08T15:10:10.873Z,5.35
2019-01-08T15:12:24.332Z,5.85
2019-01-08T15:14:30.763Z,5.95
2019-01-08T15:16:44.514Z,5.60
2019-01-08T15:18:50.015Z,5.62
2019-01-08T15:21:09.345Z,9.15
2019-01-08T15:23:15.262Z,6.62
2019-01-08T15:25:26.610Z,4.42
2019-01-08T15:27:32.312Z,11.22
2019-01-08T15:29:44.319Z,7.72
2019-01-08T15:32:02.410Z,6.10
2019-01-08T15:34:13.994Z,7.37
2019-01-08T15:36:19.913Z,11.28
2019-01-08T15:38:27.218Z,13.68
2019-01-08T15:40:34.508Z,12.65
2019-01-08T15:42:41.795Z,11.43
2019-01-08T15:44:50.621Z,12.50
2019-01-08T15:46:55.747Z,16.30
2019-01-08T15:49:04.245Z,13.55
2019-01-08T15:51:11.490Z,15.15
2019-01-08T15:53:18.323Z,17.98
2019-01-08T15:55:25.521Z,17.30
2019-01-08T15:57:31.243Z,17.32
2019-01-08T15:59:36.905Z,16.17
2019-01-08T16:01:42.440Z,13.72
2019-01-08T16:03:49.649Z,18.07
2019-01-08T16:05:55.114Z,18.17
2019-01-08T16:08:06.473Z,16.77
2019-01-08T16:10:13.898Z,15.20
2019-01-08T16:12:21.397Z,18.02
2019-01-08T16:14:44.553Z,15.75
2019-01-08T16:16:51.605Z,19.45
2019-01-08T16:18:57.057Z,12.90
2019-01-08T16:21:02.609Z,25.45
2019-01-08T16:23:08.248Z,24.72
2019-01-08T16:25:13.884Z,21.75
2019-01-08T16:27:19.351Z,27.90
2019-01-08T16:29:25.066Z,31.65
2019-01-08T16:31:30.825Z,29.23
2019-01-08T16:33:36.747Z,34.85
2019-01-08T16:35:42.421Z,34.20
2019-01-08T16:37:48.124Z,29.98
2019-01-08T16:39:53.643Z,29.15
2019-01-08T16:41:59.190Z,25.90
2019-01-08T16:44:05.219Z,32.28
2019-01-08T16:46:11.926Z,38.85
2019-01-08T16:48:17.435Z,40.15
2019-01-08T16:50:23.134Z,51.15
2019-01-08T16:52:30.331Z,51.02
2019-01-08T16:54:35.888Z,37.70
2019-01-08T16:56:41.513Z,35.60
2019-01-08T16:58:47.436Z,33.05
2019-01-08T17:00:53.263Z,43.95
2019-01-08T17:02:58.898Z,40.55
2019-01-08T17:05:05.729Z,63.40
2019-01-08T17:07:12.796Z,48.85
2019-01-08T17:09:18.390Z,38.17
2019-01-08T17:11:24.099Z,43.90
2019-01-08T17:13:29.764Z,38.92
2019-01-08T17:15:35.343Z,31.57
2019-01-08T17:17:44.803Z,32.55
2019-01-08T17:19:51.119Z,36.53
2019-01-08T17:21:56.696Z,31.07
2019-01-08T17:24:10.476Z,30.80
2019-01-08T17:26:16.033Z,30.75
2019-01-08T17:28:21.603Z,32.93
2019-01-08T17:30:29.318Z,28.87
2019-01-08T17:32:34.991Z,27.50
2019-01-08T17:34:40.672Z,27.10
2019-01-08T17:36:50.088Z,28.55
2019-01-08T17:38:55.849Z,29.87
2019-01-08T17:41:01.436Z,25.75
2019-01-08T17:43:07.161Z,28.40
2019-01-08T17:45:12.909Z,28.62
2019-01-08T17:47:22.300Z,33.58
2019-01-08T17:49:28.227Z,38.78
2019-01-08T17:51:36.474Z,33.10
2019-01-08T17:53:42.941Z,31.70
2019-01-08T17:55:48.635Z,28.67
2019-01-08T17:58:34.406Z,25.05
2019-01-08T18:00:39.999Z,29.57
2019-01-08T18:02:53.291Z,28.50
2019-01-08T18:05:00.678Z,25.70
2019-01-08T18:07:06.362Z,32.17
2019-01-08T18:09:15.247Z,26.85
2019-01-08T18:11:20.996Z,26.97
2019-01-08T18:13:26.497Z,15.38
2019-01-08T18:15:32.037Z,29.85
2019-01-08T18:17:37.920Z,27.60
2019-01-08T18:19:43.533Z,39.58
2019-01-08T18:21:50.864Z,32.98
2019-01-08T18:23:56.478Z,31.95
2019-01-08T18:26:02.093Z,37.88
2019-01-08T18:28:07.908Z,25.92
2019-01-08T18:30:13.580Z,29.25
2019-01-08T18:32:19.621Z,28.87
2019-01-08T18:34:25.352Z,31.25
2019-01-08T18:36:30.910Z,25.72
2019-01-08T18:38:36.476Z,34.18
2019-01-08T18:40:43.053Z,33.10
2019-01-08T18:42:48.648Z,34.33
2019-01-08T18:44:54.408Z,31.62
2019-01-08T18:47:01.678Z,29.82
2019-01-08T18:49:07.923Z,35.85
2019-01-08T18:51:13.667Z,32.83
2019-01-08T18:53:19.228Z,33.55
2019-01-08T18:55:25.712Z,31.62
2019-01-08T18:57:31.420Z,26.27
2019-01-08T18:59:37.201Z,27.32
2019-01-08T19:01:42.806Z,29.37
2019-01-08T19:03:48.364Z,35.38
2019-01-08T19:05:54.087Z,25.52
2019-01-08T19:08:00.023Z,33.85
2019-01-08T19:10:10.123Z,30.20
2019-01-08T19:12:18.532Z,26.12
2019-01-08T19:14:26.698Z,28.38
2019-01-08T19:16:32.339Z,33.92
2019-01-08T19:18:38.114Z,31.52
2019-01-08T19:20:43.731Z,33.13
2019-01-08T19:22:49.341Z,33.90
2019-01-08T19:24:54.803Z,29.80
2019-01-08T19:27:00.497Z,33.53
2019-01-08T19:29:06.128Z,35.52
2019-01-08T19:31:13.435Z,30.25
2019-01-08T19:33:19.199Z,29.65
2019-01-08T19:35:31.585Z,29.12
2019-01-08T19:37:34.279Z,26.90
2019-01-08T19:39:39.897Z,32.60
2019-01-08T19:41:47.084Z,19.77
2019-01-08T19:43:52.681Z,27.00
2019-01-08T19:45:58.465Z,26.17
2019-01-08T20:15:07.490Z,20.30
2019-01-08T20:17:15.205Z,25.25
2019-01-08T20:19:21.290Z,25.65
2019-01-08T20:21:26.829Z,19.87
2019-01-08T20:23:37.239Z,22.70
2019-01-08T20:26:43.316Z,28.00
2019-01-08T20:28:48.897Z,15.35
2019-01-08T20:31:02.297Z,26.12
2019-01-08T20:33:11.683Z,21.52
2019-01-08T20:35:21.450Z,19.82
2019-01-08T20:37:27.019Z,25.05
2019-01-08T20:39:33.177Z,14.38
2019-01-08T20:41:39.108Z,22.80
2019-01-08T20:43:44.863Z,22.05
2019-01-08T20:45:55.280Z,21.70
2019-01-08T20:48:02.565Z,25.48
2019-01-08T20:50:12.404Z,28.45
2019-01-08T20:52:17.421Z,21.55
2019-01-08T20:54:26.008Z,22.95
2019-01-08T20:56:33.333Z,19.48
2019-01-08T20:58:39.755Z,14.50
2019-01-08T21:00:48.498Z,16.62
2019-01-08T21:02:54.646Z,13.40
2019-01-08T21:05:01.584Z,15.40
2019-01-08T21:07:07.603Z,11.70
2019-01-08T21:09:15.351Z,16.30
2019-01-08T21:11:21.380Z,17.87
2019-01-08T21:13:27.102Z,17.67
2019-01-08T21:15:33.146Z,22.90
2019-01-08T21:17:39.618Z,22.80
2019-01-08T21:19:45.815Z,25.15
2019-01-08T21:21:52.330Z,29.35
2019-01-08T21:23:58.110Z,28.70
2019-01-08T21:26:06.971Z,27.32
2019-01-08T21:28:12.807Z,23.90
2019-01-08T21:30:18.733Z,18.95
2019-01-08T21:32:25.084Z,19.17
2019-01-08T21:34:43.862Z,59.63
2019-01-08T21:36:43.031Z,55.08
2019-01-08T21:38:50.811Z,32.28
2019-01-08T21:40:59.821Z,15.08
2019-01-08T21:43:07.996Z,20.27
2019-01-08T21:45:14.202Z,28.32
2019-01-08T21:47:20.122Z,25.43
2019-01-08T21:49:26.470Z,44.18
2019-01-08T21:51:38.324Z,20.70
2019-01-08T21:53:43.982Z,21.02
2019-01-08T21:55:49.768Z,23.67
2019-01-08T21:57:55.787Z,35.68
2019-01-08T22:00:02.394Z,30.80
2019-01-08T22:02:09.763Z,38.00
2019-01-08T22:04:17.048Z,27.65
2019-01-08T22:06:22.820Z,21.68
2019-01-08T22:08:28.479Z,24.35
2019-01-08T22:10:36.790Z,14.58
2019-01-08T22:12:42.602Z,21.20
2019-01-08T22:14:48.744Z,22.58
2019-01-08T22:16:58.471Z,25.72
2019-01-08T22:19:06.238Z,29.20
2019-01-08T22:21:13.425Z,17.70
2019-01-08T22:23:30.949Z,18.50
2019-01-08T22:25:46.587Z,21.62
2019-01-08T22:27:53.152Z,24.90
2019-01-08T22:30:00.834Z,21.27
2019-01-08T22:39:09.191Z,56.23
2019-01-08T22:41:16.258Z,50.98
2019-01-08T22:43:22.507Z,52.45
2019-01-08T22:45:28.335Z,59.30
2019-01-08T22:47:34.162Z,58.45
2019-01-08T22:49:40.618Z,61.75
2019-01-08T22:51:46.305Z,58.45
2019-01-08T22:53:51.873Z,50.67
2019-01-08T22:55:58.096Z,44.83
2019-01-08T22:58:04.132Z,48.00
2019-01-08T23:00:32.725Z,41.20
2019-01-08T23:02:43.408Z,35.65
2019-01-08T23:04:49.522Z,39.88
2019-01-08T23:06:55.553Z,47.62
2019-01-08T23:09:01.758Z,38.45
2019-01-08T23:14:28.591Z,41.65
2019-01-08T23:19:00.905Z,39.70
2019-01-08T23:19:50.155Z,41.20
2019-01-08T23:21:06.953Z,31.30
2019-01-08T23:23:14.484Z,30.00
2019-01-08T23:25:20.139Z,29.65
2019-01-08T23:27:25.678Z,38.40
2019-01-08T23:29:32.819Z,49.40
2019-01-08T23:31:38.670Z,134.93
2019-01-08T23:33:46.582Z,126.00
2019-01-08T23:35:54.221Z,88.30
2019-01-08T23:38:00.068Z,76.40
2019-01-08T23:40:06.684Z,90.25
2019-01-08T23:42:12.535Z,82.85
2019-01-08T23:44:18.260Z,47.13
2019-01-08T23:46:25.202Z,64.97
2019-01-08T23:48:30.954Z,68.92
2019-01-08T23:50:36.692Z,58.98
2019-01-08T23:52:57.586Z,60.75
2019-01-08T23:55:05.626Z,33.48
2019-01-08T23:57:12.247Z,38.13
2019-01-08T23:59:17.831Z,26.77
